ADDS METAR Data INFO
IDs: Format: Raw Decoded Include TAF

Data at: 0753 UTC 17 Oct 2017

KGOK 170653Z AUTO 17009KT 10SM CLR 11/06 A3025 RMK AO2 SLP243 T01110056
KGOK 170553Z AUTO 17007KT 10SM CLR 11/06 A3027 RMK AO2 SLP250 T01060056 10161 20094 402110044 58003
KGOK 170453Z AUTO 10SM CLR 10/06 A3029 RMK AO2 SLP256 T01000056
KGOK 170353Z AUTO 16005KT 10SM CLR 11/06 A3029 RMK AO2 SLP256 T01110056
KGOK 170253Z AUTO 15005KT 10SM CLR 12/06 A3028 RMK AO2 SLP255 T01220061 50002
KGOK 170153Z AUTO 14005KT 10SM CLR 13/06 A3028 RMK AO2 SLP256 T01280061
KGOK 170053Z AUTO 14004KT 10SM CLR 14/07 A3027 RMK AO2 SLP255 T01390067
KGOK 162353Z AUTO 13005KT 10SM CLR 16/07 A3027 RMK AO2 SLP254 T01610067 10211 20161 56011
KGOK 162253Z AUTO 17005KT 10SM CLR 19/04 A3028 RMK AO2 SLP256 T01940044
KGOK 162153Z AUTO VRB06KT 10SM CLR 21/03 A3029 RMK AO2 SLP258 T02060033
KGOK 162053Z AUTO VRB06KT 10SM CLR 21/03 A3031 RMK AO2 SLP264 T02060033 56035
KGOK 161953Z AUTO 15007KT 110V200 10SM CLR 20/03 A3034 RMK AO2 SLP274 T02000028
KGOK 161853Z AUTO 17006KT 10SM CLR 19/03 A3038 RMK AO2 SLP288 T01940028
KGOK 161753Z AUTO 10SM CLR 18/03 A3042 RMK AO2 SLP300 T01830033 10189 20044 58011
KGOK 161653Z AUTO 15004KT 10SM CLR 17/03 A3044 RMK AO2 SLP310 T01720028
KGOK 161553Z AUTO 19004KT 10SM CLR 15/06 A3045 RMK AO2 SLP314 T01500061
KGOK 161453Z AUTO 00000KT 10SM CLR 12/08 A3045 RMK AO2 SLP314 T01170078 53005
KGOK 161353Z AUTO 00000KT 10SM CLR 08/07 A3044 RMK AO2 SLP313 T00830072
KGOK 161253Z AUTO 17003KT 7SM CLR 05/04 A3044 RMK AO2 SLP311 T00500044
KGOK 161153Z AUTO 00000KT 8SM CLR 05/04 A3044 RMK AO2 SLP309 T00500044 10078 20044 53005 $
KGOK 161053Z AUTO 00000KT 9SM CLR 06/05 A3043 RMK AO2 SLP306 T00560050 $
KGOK 160953Z AUTO 00000KT 10SM CLR 06/05 A3042 RMK AO2 SLP304 T00560050 $
KGOK 160853Z AUTO 16003KT 10SM CLR 06/05 A3042 RMK AO2 SLP303 T00560050 50001 $
KGOK 160753Z AUTO 00000KT 10SM CLR 07/06 A3042 RMK AO2 SLP303 T00670056 $
KGOK 160653Z AUTO 00000KT 10SM CLR 07/06 A3042 RMK AO2 SLP302 T00720061 $
KGOK 160553Z AUTO 00000KT 10SM CLR 07/06 A3042 RMK AO2 SLP301 T00720061 10150 20072 401890072 51005 $
KGOK 160453Z AUTO 00000KT 10SM CLR 08/07 A3041 RMK AO2 SLP301 T00780067 $
KGOK 160353Z AUTO 00000KT 10SM CLR 09/07 A3041 RMK AO2 SLP301 T00890072 $
KGOK 160253Z AUTO 00000KT 10SM CLR 08/07 A3040 RMK AO2 SLP297 T00830067 51011 $
KGOK 160153Z AUTO 04003KT 10SM CLR 10/08 A3039 RMK AO2 SLP294 T01000078 $
KGOK 160053Z AUTO 00000KT 10SM CLR 13/05 A3038 RMK AO2 SLP289 T01280050 $
KGOK 152353Z AUTO 02003KT 10SM CLR 15/04 A3037 RMK AO2 SLP284 T01500039 10189 20150 55002 $
KGOK 152253Z AUTO 36006KT 10SM CLR 18/03 A3036 RMK AO2 SLP282 T01780028 $
KGOK 152153Z AUTO 01007G14KT 10SM CLR 18/02 A3036 RMK AO2 SLP281 T01830022 $
KGOK 152053Z AUTO VRB06G18KT 10SM CLR 19/03 A3037 RMK AO2 SLP284 T01890033 56015 $